Time;durP1;ratioP1;P1;durP2;ratioP2;P2;SDS_P1;SDS_P2;PMS_P1;PMS_P2;Temp;Humidity;BMP_temperature;BMP_pressure;BME280_temperature;BME280_humidity;BME280_pressure;Samples;Min_cycle;Max_cycle;Signal;HPM_P1;HPM_P2
2022/03/19 00:00:59;;;;;;;3.25;1.83;;;11.60;51.40;;;;;;5037650;28;20385;-91
2022/03/19 00:03:26;;;;;;;3.20;1.60;;;11.50;51.40;;;;;;5037334;28;20135;-90
2022/03/19 00:05:51;;;;;;;3.37;1.80;;;11.50;51.40;;;;;;5005756;28;20416;-90
2022/03/19 00:08:17;;;;;;;3.53;2.05;;;11.50;51.30;;;;;;5038784;28;20436;-90
2022/03/19 00:10:44;;;;;;;2.42;1.70;;;11.40;51.60;;;;;;5020531;28;20029;-90
2022/03/19 00:13:10;;;;;;;5.80;2.00;;;11.40;52.10;;;;;;5014192;28;20103;-90
2022/03/19 00:15:37;;;;;;;3.63;1.77;;;11.40;52.00;;;;;;5035201;28;20431;-89
2022/03/19 00:18:03;;;;;;;5.07;2.00;;;11.30;51.90;;;;;;5019903;28;20125;-90
2022/03/19 00:20:30;;;;;;;4.18;2.03;;;11.30;52.00;;;;;;5016689;28;20022;-89
2022/03/19 00:22:55;;;;;;;4.80;2.27;;;11.30;52.10;;;;;;5010632;28;20456;-89
2022/03/19 00:25:21;;;;;;;3.45;1.83;;;11.20;52.20;;;;;;5020523;28;20029;-90
2022/03/19 00:27:47;;;;;;;3.80;2.20;;;11.20;52.20;;;;;;5030737;28;20118;-91
2022/03/19 00:30:13;;;;;;;3.83;2.30;;;11.20;52.30;;;;;;5006895;28;20514;-89
2022/03/19 00:32:38;;;;;;;4.05;2.15;;;11.20;52.60;;;;;;5037409;28;20551;-90
2022/03/19 00:35:04;;;;;;;2.90;1.73;;;11.10;52.70;;;;;;5025989;28;20040;-89
2022/03/19 00:37:32;;;;;;;2.63;1.90;;;11.10;53.00;;;;;;5020866;28;20036;-90
2022/03/19 00:39:58;;;;;;;3.70;1.90;;;11.10;52.70;;;;;;5022730;28;20036;-89
2022/03/19 00:42:24;;;;;;;4.75;1.95;;;11.10;52.90;;;;;;5021792;28;20441;-89
2022/03/19 00:44:50;;;;;;;3.60;2.00;;;11.00;52.80;;;;;;5003161;28;20029;-90
2022/03/19 00:47:16;;;;;;;6.82;2.33;;;11.00;52.90;;;;;;5033831;28;20533;-90
2022/03/19 00:49:41;;;;;;;4.95;2.50;;;11.00;53.50;;;;;;5040089;28;20035;-90
2022/03/19 00:52:07;;;;;;;4.03;2.17;;;11.00;54.00;;;;;;5036470;28;20232;-90
2022/03/19 00:54:33;;;;;;;2.75;1.73;;;11.00;53.80;;;;;;4998686;28;20104;-89
2022/03/19 00:56:58;;;;;;;4.30;2.30;;;10.90;53.60;;;;;;5023236;28;21078;-90
2022/03/19 00:59:24;;;;;;;3.25;2.28;;;10.90;53.90;;;;;;5023620;28;20096;-89
2022/03/19 01:01:50;;;;;;;3.93;2.40;;;10.90;53.80;;;;;;5013997;28;20523;-90
2022/03/19 01:04:15;;;;;;;5.53;2.17;;;10.90;53.90;;;;;;5022324;28;20763;-90
2022/03/19 01:06:41;;;;;;;3.70;2.40;;;10.80;54.60;;;;;;5026662;28;20116;-91
2022/03/19 01:09:06;;;;;;;6.63;2.73;;;10.80;54.50;;;;;;5005341;28;20059;-90
2022/03/19 01:11:32;;;;;;;4.15;2.03;;;10.80;54.60;;;;;;5022490;28;20069;-90
2022/03/19 01:13:58;;;;;;;4.10;2.40;;;10.80;54.70;;;;;;5037431;28;20233;-91
2022/03/19 01:16:26;;;;;;;3.60;2.20;;;10.80;55.00;;;;;;5042365;28;20040;-89
2022/03/19 01:18:52;;;;;;;3.38;2.10;;;10.80;54.70;;;;;;5014744;28;20254;-90
2022/03/19 01:21:18;;;;;;;5.50;2.57;;;10.80;54.50;;;;;;5046033;28;20071;-90
2022/03/19 01:23:44;;;;;;;4.30;2.15;;;10.70;54.70;;;;;;5012657;28;20390;-90
2022/03/19 01:26:10;;;;;;;4.05;2.20;;;10.70;54.70;;;;;;5013515;28;20021;-89
2022/03/19 01:28:36;;;;;;;4.70;2.53;;;10.70;55.40;;;;;;5025745;28;20090;-91
2022/03/19 01:31:02;;;;;;;3.60;2.10;;;10.70;54.80;;;;;;5027178;28;20350;-90
2022/03/19 01:33:28;;;;;;;3.85;2.05;;;10.70;54.80;;;;;;5036709;28;20048;-89
2022/03/19 01:35:54;;;;;;;3.78;2.08;;;10.70;54.80;;;;;;5022585;28;20176;-89
2022/03/19 01:38:19;;;;;;;4.50;2.23;;;10.60;54.60;;;;;;5029291;28;20271;-91
2022/03/19 01:40:45;;;;;;;3.58;2.13;;;10.60;54.70;;;;;;5026553;28;20116;-89
2022/03/19 01:43:11;;;;;;;3.22;2.00;;;10.60;54.70;;;;;;5050589;28;20522;-90
2022/03/19 01:45:37;;;;;;;3.03;1.80;;;10.60;54.70;;;;;;5027500;28;20028;-89
2022/03/19 01:48:03;;;;;;;4.25;1.95;;;10.50;54.70;;;;;;5030541;28;20041;-89
2022/03/19 01:50:29;;;;;;;3.83;1.73;;;10.50;54.70;;;;;;5027827;28;20572;-90
2022/03/19 01:52:56;;;;;;;3.50;2.05;;;10.50;54.50;;;;;;5035999;28;20304;-90
2022/03/19 01:55:24;;;;;;;4.85;2.13;;;10.40;54.60;;;;;;5039653;28;20274;-90
2022/03/19 01:57:50;;;;;;;5.53;2.63;;;10.40;54.70;;;;;;5038504;28;20045;-89
2022/03/19 02:00:19;;;;;;;4.87;2.30;;;10.40;55.20;;;;;;5025396;28;20028;-90
2022/03/19 02:02:46;;;;;;;3.83;1.80;;;10.40;55.30;;;;;;5015087;28;20655;-90
2022/03/19 02:05:14;;;;;;;4.45;2.20;;;10.30;55.40;;;;;;5020087;28;20047;-90
2022/03/19 02:07:44;;;;;;;3.63;2.03;;;10.30;55.40;;;;;;5039314;28;20094;-91
2022/03/19 02:10:12;;;;;;;3.08;1.83;;;10.30;55.60;;;;;;5010977;28;20500;-91
2022/03/19 02:12:38;;;;;;;5.00;2.30;;;10.20;55.30;;;;;;5037550;28;20762;-90
2022/03/19 02:15:05;;;;;;;3.92;2.10;;;10.20;55.50;;;;;;5022854;28;20158;-90
2022/03/19 02:17:31;;;;;;;4.25;2.05;;;10.20;55.50;;;;;;5024281;28;20125;-90
2022/03/19 02:19:57;;;;;;;4.70;2.10;;;10.10;55.40;;;;;;5028645;28;20223;-89
2022/03/19 02:22:26;;;;;;;3.80;2.20;;;10.10;55.40;;;;;;5044647;28;20055;-90
2022/03/19 02:27:37;;;;;;;4.65;2.10;;;10.10;55.60;;;;;;5015058;28;20030;-90
2022/03/19 02:30:06;;;;;;;3.85;2.03;;;10.00;55.50;;;;;;5027738;28;20366;-89
2022/03/19 02:32:33;;;;;;;3.78;2.33;;;10.00;55.60;;;;;;5040048;28;20028;-90
2022/03/19 02:34:59;;;;;;;3.83;2.30;;;10.00;55.60;;;;;;5027051;28;20244;-90
2022/03/19 02:37:25;;;;;;;4.88;2.63;;;10.00;55.90;;;;;;5044149;28;20476;-90
2022/03/19 02:39:51;;;;;;;2.95;2.00;;;9.90;56.10;;;;;;5021176;28;20243;-90
2022/03/19 02:42:18;;;;;;;4.10;2.23;;;9.90;56.10;;;;;;5014464;28;20111;-90
2022/03/19 02:44:44;;;;;;;3.45;2.08;;;9.90;56.30;;;;;;5022179;28;20023;-89
2022/03/19 02:47:10;;;;;;;3.60;2.05;;;9.80;55.90;;;;;;5026899;28;20029;-90
2022/03/19 02:49:36;;;;;;;3.63;2.10;;;9.80;56.00;;;;;;5010394;28;20369;-90
2022/03/19 02:52:03;;;;;;;3.10;1.83;;;9.80;56.30;;;;;;5020434;28;20616;-90
2022/03/19 02:54:30;;;;;;;4.10;2.30;;;9.80;56.10;;;;;;5042606;28;20033;-90
2022/03/19 02:56:58;;;;;;;4.28;2.15;;;9.70;55.90;;;;;;5004310;28;20254;-89
2022/03/19 02:59:29;;;;;;;3.83;2.13;;;9.70;56.20;;;;;;5018423;28;20032;-91
2022/03/19 03:02:00;;;;;;;6.53;2.83;;;9.70;56.50;;;;;;5037922;28;20029;-90
2022/03/19 03:04:27;;;;;;;3.20;2.10;;;9.60;56.40;;;;;;5009040;28;20084;-90
2022/03/19 03:06:56;;;;;;;3.50;2.10;;;9.60;56.20;;;;;;5021982;28;20021;-90
2022/03/19 03:09:24;;;;;;;4.43;2.10;;;9.60;56.50;;;;;;5040166;28;20035;-90
2022/03/19 03:11:50;;;;;;;4.60;2.40;;;9.50;56.50;;;;;;5025603;28;20935;-90
2022/03/19 03:14:18;;;;;;;3.72;2.22;;;9.50;56.90;;;;;;5002279;28;20843;-90
2022/03/19 03:16:44;;;;;;;4.88;2.35;;;9.50;56.60;;;;;;5037370;28;20040;-89
2022/03/19 03:19:11;;;;;;;4.32;2.13;;;9.40;56.50;;;;;;5030544;28;20033;-90
2022/03/19 03:21:41;;;;;;;3.85;2.35;;;9.30;56.90;;;;;;5038490;28;20029;-89
2022/03/19 03:24:09;;;;;;;3.40;2.13;;;9.30;56.90;;;;;;5018108;28;20025;-91
2022/03/19 03:26:35;;;;;;;3.58;2.00;;;9.30;56.90;;;;;;5038573;28;20112;-90
2022/03/19 03:29:01;;;;;;;3.90;2.42;;;9.30;56.70;;;;;;5006110;28;20469;-89
2022/03/19 03:31:28;;;;;;;4.28;2.10;;;9.20;56.80;;;;;;5023920;28;20720;-90
2022/03/19 03:33:54;;;;;;;3.92;2.33;;;9.20;56.50;;;;;;5023669;28;20032;-90
2022/03/19 03:36:21;;;;;;;3.33;2.10;;;9.10;56.90;;;;;;5014459;28;20118;-90
2022/03/19 03:38:47;;;;;;;3.70;2.05;;;9.10;57.10;;;;;;5025334;28;20040;-90
2022/03/19 03:41:12;;;;;;;4.13;2.25;;;9.10;57.00;;;;;;5020824;28;20394;-90
2022/03/19 03:43:38;;;;;;;3.93;2.37;;;9.00;56.80;;;;;;5022816;28;20033;-90
2022/03/19 03:46:07;;;;;;;3.80;2.22;;;9.00;56.90;;;;;;5023626;28;20029;-90
2022/03/19 03:48:36;;;;;;;4.30;2.20;;;9.00;57.50;;;;;;5040264;28;20381;-90
2022/03/19 03:51:03;;;;;;;5.60;2.70;;;9.00;57.30;;;;;;5025754;28;20040;-89
2022/03/19 03:53:30;;;;;;;4.13;2.30;;;8.90;57.40;;;;;;5035793;28;20567;-89
2022/03/19 03:55:57;;;;;;;3.63;2.33;;;8.90;57.70;;;;;;5022932;28;20029;-90
2022/03/19 03:58:23;;;;;;;6.10;2.40;;;8.90;57.40;;;;;;5008853;28;20042;-90
2022/03/19 04:00:51;;;;;;;4.22;2.38;;;8.90;57.80;;;;;;5026689;28;20032;-90
2022/03/19 04:03:17;;;;;;;4.53;2.23;;;8.90;57.80;;;;;;5034178;28;20246;-90
2022/03/19 04:05:43;;;;;;;3.50;2.28;;;8.80;57.50;;;;;;5039541;28;20385;-89
2022/03/19 04:08:09;;;;;;;5.03;2.50;;;8.80;57.20;;;;;;5010353;28;20028;-90
2022/03/19 04:10:34;;;;;;;4.13;1.97;;;8.80;57.60;;;;;;5032361;28;20021;-89
2022/03/19 04:13:00;;;;;;;3.47;2.22;;;8.80;57.90;;;;;;5018230;28;20512;-90
2022/03/19 04:15:26;;;;;;;4.40;2.23;;;8.80;58.10;;;;;;5024116;28;20234;-90
2022/03/19 04:17:52;;;;;;;4.77;2.50;;;8.80;57.80;;;;;;5024528;28;20453;-89
2022/03/19 04:20:18;;;;;;;3.75;2.40;;;8.80;57.90;;;;;;5016791;28;20103;-90
2022/03/19 04:22:45;;;;;;;4.82;2.58;;;8.80;57.80;;;;;;5027939;28;20063;-90
2022/03/19 04:25:16;;;;;;;3.60;2.07;;;8.70;57.80;;;;;;5015556;28;20207;-90
2022/03/19 04:27:44;;;;;;;4.07;1.92;;;8.70;58.50;;;;;;5037266;28;20041;-90
2022/03/19 04:30:13;;;;;;;3.17;1.85;;;8.70;58.20;;;;;;5007039;28;20074;-90
2022/03/19 04:32:44;;;;;;;3.35;1.83;;;8.70;58.50;;;;;;5023333;28;20078;-90
2022/03/19 04:37:58;;;;;;;4.37;2.20;;;8.60;57.90;;;;;;5027256;28;20456;-89
2022/03/19 04:40:24;;;;;;;6.20;2.45;;;8.60;58.40;;;;;;5025553;28;20505;-90
2022/03/19 04:42:50;;;;;;;4.18;2.40;;;8.60;59.00;;;;;;5028328;28;20021;-90
2022/03/19 04:45:16;;;;;;;3.27;2.03;;;8.50;58.50;;;;;;5026887;28;20096;-88
2022/03/19 04:47:42;;;;;;;4.88;2.60;;;8.50;58.50;;;;;;5024605;28;20060;-89
2022/03/19 04:50:08;;;;;;;3.45;2.17;;;8.50;58.60;;;;;;5023172;28;20056;-90
2022/03/19 04:52:34;;;;;;;4.07;2.30;;;8.50;58.30;;;;;;5041005;28;20031;-90
2022/03/19 04:55:01;;;;;;;4.80;2.00;;;8.40;58.70;;;;;;5028657;28;20435;-90
2022/03/19 04:57:27;;;;;;;3.20;2.15;;;8.40;58.60;;;;;;5022907;28;20061;-89
2022/03/19 04:59:54;;;;;;;3.67;2.08;;;8.40;58.60;;;;;;5039005;28;20464;-90
2022/03/19 05:02:20;;;;;;;4.78;2.50;;;8.40;58.50;;;;;;5011115;28;24071;-90
2022/03/19 05:04:46;;;;;;;4.45;2.47;;;8.40;58.70;;;;;;5032118;28;20021;-89
2022/03/19 05:07:11;;;;;;;4.77;2.37;;;8.30;58.60;;;;;;5021324;28;20448;-90
2022/03/19 05:12:32;;;;;;;3.93;2.30;;;8.30;58.80;;;;;;5060213;28;20044;-89
2022/03/19 05:14:58;;;;;;;3.65;1.98;;;8.30;59.00;;;;;;5016664;28;20036;-89
2022/03/19 05:17:24;;;;;;;5.68;2.85;;;8.30;58.70;;;;;;5026247;28;20033;-89
2022/03/19 05:19:49;;;;;;;4.57;2.57;;;8.20;58.60;;;;;;5006564;28;20572;-90
2022/03/19 05:22:15;;;;;;;4.03;2.42;;;8.20;58.80;;;;;;5018579;28;20191;-90
2022/03/19 05:24:41;;;;;;;4.40;2.47;;;8.20;58.70;;;;;;5028819;28;20071;-89
2022/03/19 05:27:08;;;;;;;3.35;2.10;;;8.20;59.00;;;;;;5030499;28;20063;-89
2022/03/19 05:29:34;;;;;;;3.78;2.10;;;8.20;59.20;;;;;;5025075;28;20021;-90
2022/03/19 05:32:00;;;;;;;3.93;2.10;;;8.10;59.70;;;;;;5013356;28;20540;-90
2022/03/19 05:34:31;;;;;;;3.93;2.30;;;8.10;58.90;;;;;;5029594;28;20127;-90
2022/03/19 05:37:03;;;;;;;4.50;2.30;;;8.10;58.90;;;;;;5036656;28;20344;-90
2022/03/19 05:39:29;;;;;;;3.65;2.30;;;8.10;59.60;;;;;;5019289;28;20229;-90
2022/03/19 05:41:55;;;;;;;4.32;2.33;;;8.10;59.30;;;;;;5032999;28;20136;-89
2022/03/19 05:44:21;;;;;;;4.82;2.70;;;8.00;59.10;;;;;;5022738;28;20701;-89
2022/03/19 05:46:48;;;;;;;4.10;2.20;;;8.00;58.90;;;;;;5028049;28;20029;-89
2022/03/19 05:49:14;;;;;;;3.53;2.35;;;8.00;59.30;;;;;;5006500;28;20029;-89
2022/03/19 05:51:40;;;;;;;3.58;2.17;;;8.00;59.10;;;;;;5037570;28;20029;-90
2022/03/19 05:54:06;;;;;;;4.95;2.42;;;8.00;59.30;;;;;;5019805;28;20587;-90
2022/03/19 05:56:32;;;;;;;4.50;2.50;;;8.00;59.40;;;;;;5012472;28;20100;-89
2022/03/19 05:58:58;;;;;;;3.65;2.40;;;7.90;59.50;;;;;;5017091;28;20398;-88
2022/03/19 06:01:27;;;;;;;3.83;2.10;;;7.90;59.50;;;;;;5009337;28;20031;-89
2022/03/19 06:03:57;;;;;;;3.70;2.50;;;7.90;59.50;;;;;;5002701;28;20018;-90
2022/03/19 06:06:27;;;;;;;3.80;2.37;;;7.90;60.00;;;;;;4994675;28;20497;-89
2022/03/19 06:08:53;;;;;;;3.55;2.28;;;7.90;60.00;;;;;;5023044;28;20206;-89
2022/03/19 06:11:19;;;;;;;3.00;2.10;;;7.90;59.60;;;;;;5034388;28;20063;-90
2022/03/19 06:13:44;;;;;;;4.13;2.13;;;7.90;59.80;;;;;;5009004;28;20248;-90
2022/03/19 06:16:11;;;;;;;4.43;2.67;;;7.90;59.90;;;;;;5040199;28;20036;-90
2022/03/19 06:18:37;;;;;;;5.32;2.63;;;7.90;60.90;;;;;;5040103;28;20042;-89
2022/03/19 06:21:03;;;;;;;4.03;2.42;;;7.90;59.80;;;;;;4993859;28;20035;-90
2022/03/19 06:23:28;;;;;;;3.50;2.07;;;7.90;59.90;;;;;;5031178;28;20039;-89
2022/03/19 06:25:54;;;;;;;2.88;2.20;;;7.90;59.90;;;;;;5035538;28;20420;-89
2022/03/19 06:28:20;;;;;;;3.40;2.38;;;7.90;60.80;;;;;;5011837;28;20032;-88
2022/03/19 06:30:46;;;;;;;5.32;2.85;;;8.00;60.20;;;;;;5008874;28;20220;-88
2022/03/19 06:33:12;;;;;;;4.67;2.23;;;8.00;60.30;;;;;;5024379;28;20545;-90
2022/03/19 06:38:26;;;;;;;4.18;2.70;;;8.10;60.80;;;;;;5035860;28;20032;-90
2022/03/19 06:40:52;;;;;;;4.43;2.43;;;8.10;60.80;;;;;;5034424;28;20021;-90
2022/03/19 06:43:18;;;;;;;3.70;2.15;;;8.20;60.70;;;;;;5012802;28;20021;-89
2022/03/19 06:45:44;;;;;;;3.67;2.40;;;8.30;61.00;;;;;;5018225;28;20254;-89
2022/03/19 06:48:10;;;;;;;3.63;2.10;;;8.40;60.90;;;;;;5017232;28;20503;-89
2022/03/19 06:50:36;;;;;;;5.18;2.58;;;8.50;61.20;;;;;;5020585;28;20029;-90
2022/03/19 06:53:03;;;;;;;3.20;2.08;;;8.70;61.80;;;;;;4997574;28;20057;-90
2022/03/19 06:55:29;;;;;;;4.93;2.50;;;8.80;62.30;;;;;;5014538;28;20526;-89
2022/03/19 06:57:56;;;;;;;3.30;2.13;;;9.00;62.20;;;;;;5025914;28;20352;-90
2022/03/19 07:00:22;;;;;;;3.60;2.22;;;9.30;62.00;;;;;;5015915;28;20021;-90
2022/03/19 07:02:53;;;;;;;5.95;2.72;;;9.50;61.80;;;;;;5045511;28;20063;-90
2022/03/19 07:05:27;;;;;;;4.07;2.30;;;9.60;61.40;;;;;;5028258;28;20025;-89
2022/03/19 07:07:54;;;;;;;5.33;2.60;;;9.70;60.80;;;;;;5002105;28;20277;-89
2022/03/19 07:10:20;;;;;;;4.70;2.72;;;9.80;60.60;;;;;;4999386;28;20032;-90
2022/03/19 07:12:51;;;;;;;4.82;2.80;;;9.90;61.00;;;;;;5038393;28;20226;-90
2022/03/19 07:15:20;;;;;;;6.53;3.08;;;10.10;61.50;;;;;;5017264;28;20256;-90
2022/03/19 07:17:46;;;;;;;4.68;2.65;;;10.20;61.90;;;;;;5023091;28;20041;-90
2022/03/19 07:20:16;;;;;;;5.00;2.50;;;10.50;61.80;;;;;;5017786;28;20281;-89
2022/03/19 07:23:02;;;;;;;4.85;3.08;;;10.60;61.40;;;;;;5022231;28;20152;-90
2022/03/19 07:25:30;;;;;;;5.07;3.13;;;10.70;61.10;;;;;;4995811;28;20542;-90
2022/03/19 07:27:58;;;;;;;5.13;2.97;;;10.80;60.80;;;;;;5020694;28;20025;-91
2022/03/19 07:30:24;;;;;;;5.00;2.72;;;10.90;60.90;;;;;;5026941;28;20236;-91
2022/03/19 07:32:51;;;;;;;5.70;3.10;;;11.00;61.30;;;;;;5036373;28;20437;-91
2022/03/19 07:35:16;;;;;;;3.72;2.40;;;11.20;62.00;;;;;;5017091;28;20020;-91
2022/03/19 07:37:43;;;;;;;4.80;2.83;;;11.50;62.80;;;;;;5050113;28;20098;-89
2022/03/19 07:40:11;;;;;;;4.45;2.78;;;11.80;63.70;;;;;;5000163;28;20022;-91
2022/03/19 07:42:37;;;;;;;3.93;2.60;;;12.30;64.10;;;;;;5011909;28;20032;-90
2022/03/19 07:45:04;;;;;;;4.53;3.08;;;12.70;64.30;;;;;;5006854;28;20029;-89
2022/03/19 07:47:30;;;;;;;6.32;2.83;;;13.20;64.10;;;;;;5018402;28;20091;-90
2022/03/19 07:49:56;;;;;;;5.40;2.85;;;13.70;63.70;;;;;;5017978;28;20467;-90
2022/03/19 07:52:22;;;;;;;7.07;2.90;;;14.10;63.00;;;;;;5022420;28;20033;-90
2022/03/19 07:54:48;;;;;;;4.85;3.22;;;14.60;62.50;;;;;;5005056;28;20091;-91
2022/03/19 07:57:14;;;;;;;8.40;4.00;;;15.00;61.10;;;;;;5020244;28;20319;-90
2022/03/19 07:59:40;;;;;;;5.45;3.22;;;15.40;60.00;;;;;;5032626;28;20597;-91
2022/03/19 08:02:06;;;;;;;4.68;2.80;;;15.70;59.80;;;;;;5008684;28;20104;-91
2022/03/19 08:04:32;;;;;;;4.22;2.65;;;16.10;59.70;;;;;;5029773;28;20029;-90
2022/03/19 08:06:58;;;;;;;5.23;2.90;;;16.40;59.80;;;;;;5024510;28;20508;-92
2022/03/19 08:09:24;;;;;;;3.72;2.50;;;16.80;59.30;;;;;;5009933;28;20219;-91
2022/03/19 08:11:51;;;;;;;4.97;3.00;;;17.10;59.20;;;;;;5008304;28;20157;-90
2022/03/19 08:14:17;;;;;;;4.83;3.00;;;17.50;58.70;;;;;;5024707;28;20301;-90
2022/03/19 08:16:45;;;;;;;3.80;2.72;;;17.80;58.20;;;;;;5004666;28;20076;-90
2022/03/19 08:19:13;;;;;;;4.35;2.60;;;18.10;57.80;;;;;;5025946;28;20253;-91
2022/03/19 08:21:43;;;;;;;5.70;2.88;;;18.40;57.40;;;;;;5032269;28;20017;-91
2022/03/19 08:24:10;;;;;;;5.88;3.10;;;18.70;56.60;;;;;;5016986;28;20570;-90
2022/03/19 08:26:36;;;;;;;5.60;2.97;;;19.00;55.10;;;;;;5022189;28;20131;-90
2022/03/19 08:29:03;;;;;;;4.65;2.65;;;19.20;54.50;;;;;;5004044;28;20461;-90
2022/03/19 08:31:29;;;;;;;3.53;2.30;;;19.40;54.40;;;;;;5017627;28;20491;-91
2022/03/19 08:33:56;;;;;;;3.78;2.63;;;19.60;55.10;;;;;;5012944;28;20356;-90
2022/03/19 08:36:22;;;;;;;3.42;2.30;;;19.80;53.60;;;;;;5032742;28;20394;-91
2022/03/19 08:41:32;;;;;;;4.55;2.42;;;20.10;50.80;;;;;;5020060;28;20100;-91
2022/03/19 08:43:58;;;;;;;4.97;2.92;;;20.20;50.50;;;;;;5008068;28;20136;-92
2022/03/19 08:46:25;;;;;;;4.15;2.33;;;20.20;50.20;;;;;;5012934;28;20017;-89
2022/03/19 08:48:51;;;;;;;3.53;2.55;;;20.30;49.70;;;;;;5009925;28;20365;-91
2022/03/19 08:54:03;;;;;;;3.78;2.20;;;20.60;50.50;;;;;;5031204;28;20730;-91
2022/03/19 08:56:30;;;;;;;3.70;2.50;;;20.70;51.30;;;;;;5010549;28;20576;-92
2022/03/19 08:58:55;;;;;;;4.37;2.50;;;20.90;49.70;;;;;;5009065;28;20032;-90
2022/03/19 09:01:21;;;;;;;3.92;2.63;;;21.00;48.60;;;;;;5024803;28;20037;-89
2022/03/19 09:03:47;;;;;;;4.13;2.60;;;21.20;47.20;;;;;;5026048;28;20108;-91
2022/03/19 09:06:14;;;;;;;4.40;2.72;;;21.20;47.60;;;;;;5021539;28;20531;-90
2022/03/19 09:08:41;;;;;;;3.90;2.50;;;21.30;47.60;;;;;;5014356;28;20231;-90
2022/03/19 09:11:07;;;;;;;4.07;2.03;;;21.50;47.90;;;;;;5035882;28;20043;-91
2022/03/19 09:13:33;;;;;;;4.93;2.40;;;21.60;46.40;;;;;;5020033;28;20252;-91
2022/03/19 09:15:58;;;;;;;4.70;2.23;;;21.70;46.20;;;;;;5029098;28;20087;-91
2022/03/19 09:18:25;;;;;;;4.10;2.30;;;21.90;46.60;;;;;;5008158;28;20551;-90
2022/03/19 09:20:51;;;;;;;3.75;2.45;;;22.00;47.00;;;;;;5021921;28;20083;-93
2022/03/19 09:23:16;;;;;;;3.93;2.37;;;22.20;44.60;;;;;;5032541;28;20030;-91
2022/03/19 09:25:42;;;;;;;4.13;2.40;;;22.40;45.40;;;;;;5014132;28;20691;-91
2022/03/19 09:28:08;;;;;;;4.80;2.40;;;22.50;45.50;;;;;;5009429;28;20302;-90
2022/03/19 09:30:34;;;;;;;3.72;2.40;;;22.70;42.70;;;;;;5010079;28;20041;-89
2022/03/19 09:33:00;;;;;;;3.60;2.00;;;22.70;42.10;;;;;;5013202;28;20645;-90
2022/03/19 09:35:25;;;;;;;3.80;2.40;;;22.70;41.60;;;;;;5010638;28;20036;-90
2022/03/19 09:37:52;;;;;;;4.32;2.55;;;22.80;41.40;;;;;;5008408;28;20056;-90
2022/03/19 09:40:19;;;;;;;3.65;2.38;;;22.80;41.90;;;;;;5034830;28;20021;-90
2022/03/19 09:42:49;;;;;;;3.43;2.03;;;22.80;40.60;;;;;;5024281;28;20299;-89
2022/03/19 09:45:18;;;;;;;4.40;2.40;;;22.90;39.80;;;;;;5040886;28;20031;-91
2022/03/19 09:47:44;;;;;;;3.22;2.10;;;22.90;40.50;;;;;;5015658;28;20325;-90
2022/03/19 09:50:10;;;;;;;4.17;2.20;;;23.00;40.60;;;;;;5010045;28;20033;-91
2022/03/19 09:52:36;;;;;;;2.92;1.92;;;23.00;40.70;;;;;;5017414;28;20042;-90
2022/03/19 09:55:03;;;;;;;3.10;2.15;;;23.10;40.90;;;;;;5022700;28;20067;-90
2022/03/19 09:57:29;;;;;;;4.13;2.10;;;23.20;41.20;;;;;;5021068;28;20032;-90
2022/03/19 09:59:55;;;;;;;3.93;2.27;;;23.40;41.40;;;;;;5004645;28;20036;-91
2022/03/19 10:02:21;;;;;;;3.30;2.10;;;23.50;41.10;;;;;;5019689;28;20087;-90
2022/03/19 10:04:51;;;;;;;3.72;2.20;;;23.70;40.90;;;;;;5017854;28;20035;-91
2022/03/19 10:10:07;;;;;;;3.83;2.25;;;24.10;39.70;;;;;;5037706;28;20040;-89
2022/03/19 10:12:36;;;;;;;2.58;1.83;;;24.30;39.50;;;;;;5034775;28;20045;-91
2022/03/19 10:15:09;;;;;;;2.80;1.90;;;24.50;39.50;;;;;;5017728;28;20036;-89
2022/03/19 10:17:37;;;;;;;2.65;1.95;;;24.60;38.50;;;;;;5002940;28;20595;-89
2022/03/19 10:20:09;;;;;;;2.80;1.60;;;24.70;38.20;;;;;;5043374;28;20521;-92
2022/03/19 10:22:38;;;;;;;3.20;1.85;;;24.80;37.60;;;;;;5005229;28;22188;-90
2022/03/19 10:25:10;;;;;;;2.65;1.70;;;24.80;37.70;;;;;;5027248;28;20028;-90
2022/03/19 10:27:39;;;;;;;4.20;2.20;;;24.90;36.60;;;;;;5014468;28;20221;-88
2022/03/19 10:30:16;;;;;;;2.75;1.55;;;25.00;36.30;;;;;;5005889;28;20017;-87
2022/03/19 10:32:48;;;;;;;3.30;1.70;;;25.00;35.30;;;;;;5004427;28;20273;-88
2022/03/19 10:35:27;;;;;;;3.67;1.80;;;25.10;35.20;;;;;;5009912;28;20090;-88
2022/03/19 10:37:53;;;;;;;3.63;2.03;;;25.10;35.20;;;;;;5021485;28;20033;-87
2022/03/19 10:40:20;;;;;;;3.42;2.20;;;25.20;34.10;;;;;;5013789;28;20036;-87
2022/03/19 10:42:46;;;;;;;3.30;2.03;;;25.30;34.10;;;;;;5012870;28;20540;-88
2022/03/19 10:45:20;;;;;;;2.07;1.50;;;25.40;33.80;;;;;;5018754;28;20029;-87
2022/03/19 10:47:47;;;;;;;4.13;1.80;;;25.40;34.10;;;;;;5039278;28;20064;-87
2022/03/19 10:50:22;;;;;;;2.63;1.55;;;25.50;33.10;;;;;;5015071;28;20033;-89
2022/03/19 10:52:51;;;;;;;2.17;1.50;;;25.60;32.30;;;;;;5017045;28;20032;-89
2022/03/19 10:55:17;;;;;;;3.30;1.60;;;25.60;32.90;;;;;;5015639;28;20030;-87
2022/03/19 10:57:45;;;;;;;2.30;1.80;;;25.70;33.60;;;;;;5003987;28;20045;-87
2022/03/19 11:00:11;;;;;;;3.08;1.80;;;25.80;32.60;;;;;;5000973;28;20226;-88
2022/03/19 11:02:43;;;;;;;2.83;1.80;;;25.80;32.40;;;;;;5031996;28;20029;-88
2022/03/19 11:05:11;;;;;;;2.55;1.70;;;25.90;31.50;;;;;;5002335;28;20101;-87
2022/03/19 11:07:39;;;;;;;2.63;1.58;;;26.10;32.10;;;;;;5034503;28;20343;-87
2022/03/19 11:10:06;;;;;;;3.37;1.60;;;26.10;32.10;;;;;;5006754;28;20566;-88
2022/03/19 11:12:33;;;;;;;3.10;1.73;;;26.30;31.00;;;;;;5004854;28;20246;-88
2022/03/19 11:15:03;;;;;;;2.20;1.42;;;26.40;29.50;;;;;;5026342;28;20560;-88
2022/03/19 11:17:32;;;;;;;2.92;1.50;;;26.40;29.30;;;;;;4990897;28;20216;-87
2022/03/19 11:20:09;;;;;;;2.42;1.70;;;26.40;29.50;;;;;;5007432;28;20053;-88
2022/03/19 11:22:42;;;;;;;2.97;1.80;;;26.40;28.50;;;;;;5022971;28;20080;-81
2022/03/19 11:25:26;;;;;;;1.80;1.40;;;26.30;27.60;;;;;;5011596;28;20036;-82
2022/03/19 11:27:55;;;;;;;3.70;1.90;;;26.30;28.60;;;;;;5032271;28;20036;-82
2022/03/19 11:30:29;;;;;;;3.00;1.67;;;26.20;27.40;;;;;;5002552;28;20273;-81
2022/03/19 11:33:27;;;;;;;2.65;1.80;;;26.20;27.40;;;;;;5031156;28;20041;-82
2022/03/19 11:35:59;;;;;;;3.80;1.90;;;26.20;27.20;;;;;;5024241;28;20067;-83
2022/03/19 11:38:25;;;;;;;3.80;1.70;;;26.10;26.90;;;;;;5030083;28;20037;-85
2022/03/19 11:40:56;;;;;;;3.58;1.90;;;26.10;28.00;;;;;;5026335;28;20520;-84
2022/03/19 11:43:24;;;;;;;3.60;1.80;;;26.10;27.30;;;;;;5031335;28;20029;-83
2022/03/19 11:45:54;;;;;;;2.63;1.63;;;26.10;26.90;;;;;;5023031;28;20493;-84
2022/03/19 11:48:36;;;;;;;3.50;1.70;;;26.10;27.30;;;;;;5016918;28;20200;-86
2022/03/19 11:51:19;;;;;;;5.13;1.95;;;26.10;27.60;;;;;;5014873;28;20425;-87
2022/03/19 11:54:05;;;;;;;2.30;1.90;;;26.20;27.80;;;;;;5009734;28;20407;-87
2022/03/19 11:56:42;;;;;;;3.35;1.80;;;26.40;27.10;;;;;;5017414;28;20518;-84
2022/03/19 11:59:23;;;;;;;3.35;1.90;;;26.40;27.20;;;;;;5002484;28;20095;-85
2022/03/19 12:01:48;;;;;;;3.40;2.17;;;26.50;27.30;;;;;;5025422;28;20041;-85
2022/03/19 12:04:16;;;;;;;2.60;1.73;;;26.50;27.40;;;;;;5000547;28;20477;-85
2022/03/19 12:06:58;;;;;;;3.95;2.00;;;26.60;28.00;;;;;;5013335;28;20135;-84
2022/03/19 12:09:33;;;;;;;3.13;1.70;;;26.70;27.90;;;;;;4994254;28;20425;-84
2022/03/19 12:12:13;;;;;;;3.05;1.90;;;26.80;27.70;;;;;;5024300;28;20505;-83
2022/03/19 12:14:40;;;;;;;3.75;1.80;;;26.80;27.50;;;;;;5019453;28;20438;-85
2022/03/19 12:17:17;;;;;;;3.15;1.77;;;26.80;27.00;;;;;;5029173;28;20060;-85
2022/03/19 12:20:02;;;;;;;3.65;2.17;;;26.70;26.70;;;;;;5002634;28;20049;-85
2022/03/19 12:22:36;;;;;;;4.07;1.60;;;26.70;26.30;;;;;;5010987;28;20025;-86
2022/03/19 12:25:16;;;;;;;4.10;2.00;;;26.60;26.40;;;;;;5018593;28;20074;-85
2022/03/19 12:27:56;;;;;;;3.58;1.75;;;26.60;26.00;;;;;;5022121;28;20575;-84
2022/03/19 12:30:25;;;;;;;9.00;1.60;;;26.60;26.00;;;;;;5008190;28;20397;-85
2022/03/19 12:32:54;;;;;;;3.05;1.90;;;26.50;26.30;;;;;;5036745;28;20116;-85
2022/03/19 12:35:25;;;;;;;2.83;1.63;;;26.50;26.30;;;;;;5007092;28;20029;-84
2022/03/19 12:37:53;;;;;;;3.50;1.83;;;26.50;26.90;;;;;;5020812;28;20020;-86
2022/03/19 12:40:23;;;;;;;2.97;1.70;;;26.50;26.90;;;;;;5009450;28;20028;-85
2022/03/19 12:42:57;;;;;;;3.72;1.67;;;26.50;26.60;;;;;;5030705;28;20036;-84
2022/03/19 12:45:39;;;;;;;3.15;2.05;;;26.60;26.20;;;;;;5020099;28;20036;-84
2022/03/19 12:48:13;;;;;;;3.20;1.67;;;26.70;25.70;;;;;;5040351;28;20021;-85
2022/03/19 12:50:41;;;;;;;2.55;1.67;;;26.70;25.90;;;;;;5018172;28;20037;-85
2022/03/19 12:53:07;;;;;;;2.97;2.00;;;26.80;25.80;;;;;;5022595;28;20366;-85
2022/03/19 12:55:33;;;;;;;3.28;1.80;;;26.70;25.50;;;;;;5003038;28;20552;-85
2022/03/19 12:58:01;;;;;;;3.27;1.90;;;26.70;25.40;;;;;;5002039;28;20033;-85
2022/03/19 13:00:27;;;;;;;2.70;1.70;;;26.60;25.30;;;;;;4999025;28;20029;-85
2022/03/19 13:02:54;;;;;;;2.80;2.00;;;26.60;24.70;;;;;;5033296;28;20032;-85
2022/03/19 13:05:21;;;;;;;2.58;1.90;;;26.60;25.00;;;;;;5031807;28;20033;-85
2022/03/19 13:08:08;;;;;;;2.75;1.65;;;26.50;25.10;;;;;;5021665;28;20517;-85
2022/03/19 13:10:49;;;;;;;2.77;1.63;;;26.60;24.80;;;;;;4998507;28;20232;-85
2022/03/19 13:13:15;;;;;;;4.03;1.80;;;26.50;24.90;;;;;;5039251;28;20041;-85